Terminal Aerodrome Forecast
Issued by NWS Grand Forks, ND

Home | Current Version | Previous Version | Text Only | Print | Product List | Glossary Off
Versions: 1 2 3 4 5 6 7 8 9 10 11 12 13 14 15
000 FTUS43 KFGF 132320 TAFFAR TAF KFAR 132320Z 1400/1424 17016G25KT P6SM VCSH FEW090 FM140100 18009KT P6SM VCSH BKN090 FM140600 16009KT P6SM SCT090=

USA.gov is the U.S. government's official web portal to all federal, state and local government web resources and services.